sensor_id;sensor_type;location;lat;lon;timestamp;pressure;altitude;pressure_sealevel;temperature;humidity
23953;BME280;12163;49.316;6.092;2023-09-18T00:00:29;98582.00;;;21.11;82.14
23953;BME280;12163;49.316;6.092;2023-09-18T00:02:57;98589.06;;;21.09;82.03
23953;BME280;12163;49.316;6.092;2023-09-18T00:05:23;98676.09;;;21.12;82.50
23953;BME280;12163;49.316;6.092;2023-09-18T00:07:50;98665.09;;;21.12;82.17
23953;BME280;12163;49.316;6.092;2023-09-18T00:10:17;98685.09;;;21.12;81.33
23953;BME280;12163;49.316;6.092;2023-09-18T00:12:43;98743.50;;;21.13;81.08
23953;BME280;12163;49.316;6.092;2023-09-18T00:15:10;98744.16;;;21.03;79.63
23953;BME280;12163;49.316;6.092;2023-09-18T00:17:37;98768.75;;;20.96;78.95
23953;BME280;12163;49.316;6.092;2023-09-18T00:20:04;98701.69;;;20.90;79.15
23953;BME280;12163;49.316;6.092;2023-09-18T00:22:33;98700.72;;;20.79;79.77
23953;BME280;12163;49.316;6.092;2023-09-18T00:25:00;98671.50;;;20.64;79.31
23953;BME280;12163;49.316;6.092;2023-09-18T00:27:28;98623.94;;;20.49;80.72
23953;BME280;12163;49.316;6.092;2023-09-18T00:29:55;98576.38;;;20.35;81.42
23953;BME280;12163;49.316;6.092;2023-09-18T00:32:21;98553.88;;;20.19;82.60
23953;BME280;12163;49.316;6.092;2023-09-18T00:34:48;98528.28;;;20.08;83.15
23953;BME280;12163;49.316;6.092;2023-09-18T00:37:15;98503.97;;;20.03;84.28
23953;BME280;12163;49.316;6.092;2023-09-18T00:39:43;98468.25;;;19.96;84.72
23953;BME280;12163;49.316;6.092;2023-09-18T00:42:10;98468.56;;;19.91;85.32
23953;BME280;12163;49.316;6.092;2023-09-18T00:44:40;98471.59;;;19.83;85.10
23953;BME280;12163;49.316;6.092;2023-09-18T00:47:11;98470.34;;;19.77;85.35
23953;BME280;12163;49.316;6.092;2023-09-18T00:49:40;98467.97;;;19.75;85.08
23953;BME280;12163;49.316;6.092;2023-09-18T00:52:08;98475.81;;;19.77;85.24
23953;BME280;12163;49.316;6.092;2023-09-18T00:54:36;98464.19;;;19.83;85.11
23953;BME280;12163;49.316;6.092;2023-09-18T00:57:04;98484.97;;;19.88;85.37
23953;BME280;12163;49.316;6.092;2023-09-18T00:59:31;98483.06;;;19.92;85.36
23953;BME280;12163;49.316;6.092;2023-09-18T01:02:00;98480.34;;;19.95;86.02
23953;BME280;12163;49.316;6.092;2023-09-18T01:04:28;98475.69;;;19.96;86.26
23953;BME280;12163;49.316;6.092;2023-09-18T01:06:56;98489.78;;;19.98;86.32
23953;BME280;12163;49.316;6.092;2023-09-18T01:09:24;98509.31;;;19.96;86.30
23953;BME280;12163;49.316;6.092;2023-09-18T01:12:01;98517.84;;;19.91;86.42
23953;BME280;12163;49.316;6.092;2023-09-18T01:14:42;98524.06;;;19.88;86.78
23953;BME280;12163;49.316;6.092;2023-09-18T01:17:13;98529.97;;;19.90;86.93
23953;BME280;12163;49.316;6.092;2023-09-18T01:19:46;98528.06;;;19.94;87.25
23953;BME280;12163;49.316;6.092;2023-09-18T01:22:15;98558.59;;;19.96;86.94
23953;BME280;12163;49.316;6.092;2023-09-18T01:24:44;98571.13;;;19.97;87.26
23953;BME280;12163;49.316;6.092;2023-09-18T01:27:15;98565.66;;;19.97;87.23
23953;BME280;12163;49.316;6.092;2023-09-18T01:29:46;98554.69;;;19.97;87.10
23953;BME280;12163;49.316;6.092;2023-09-18T01:32:14;98551.59;;;19.99;87.00
23953;BME280;12163;49.316;6.092;2023-09-18T01:34:44;98558.59;;;19.96;86.71
23953;BME280;12163;49.316;6.092;2023-09-18T01:37:14;98565.63;;;19.94;86.91
23953;BME280;12163;49.316;6.092;2023-09-18T01:39:42;98562.47;;;19.92;86.49
23953;BME280;12163;49.316;6.092;2023-09-18T01:42:09;98570.22;;;19.86;87.00
23953;BME280;12163;49.316;6.092;2023-09-18T01:44:36;98564.66;;;19.83;87.15
23953;BME280;12163;49.316;6.092;2023-09-18T01:47:08;98572.84;;;19.79;87.75
23953;BME280;12163;49.316;6.092;2023-09-18T01:49:37;98573.63;;;19.80;87.79
23953;BME280;12163;49.316;6.092;2023-09-18T01:52:04;98567.78;;;19.81;87.84
23953;BME280;12163;49.316;6.092;2023-09-18T01:54:32;98571.72;;;19.84;87.95
23953;BME280;12163;49.316;6.092;2023-09-18T01:57:00;98571.72;;;19.84;88.22
23953;BME280;12163;49.316;6.092;2023-09-18T01:59:27;98572.47;;;19.81;87.93
23953;BME280;12163;49.316;6.092;2023-09-18T02:01:54;98578.31;;;19.79;87.73
23953;BME280;12163;49.316;6.092;2023-09-18T02:04:22;98576.31;;;19.76;87.97
23953;BME280;12163;49.316;6.092;2023-09-18T02:07:09;98580.19;;;19.75;88.05
23953;BME280;12163;49.316;6.092;2023-09-18T02:09:36;98580.19;;;19.75;88.41
23953;BME280;12163;49.316;6.092;2023-09-18T02:12:03;98587.31;;;19.80;88.59
23953;BME280;12163;49.316;6.092;2023-09-18T02:14:30;98587.38;;;19.83;88.45
23953;BME280;12163;49.316;6.092;2023-09-18T02:16:58;98592.91;;;19.87;88.55
23953;BME280;12163;49.316;6.092;2023-09-18T02:19:24;98593.69;;;19.87;88.46
23953;BME280;12163;49.316;6.092;2023-09-18T02:21:54;98597.59;;;19.86;88.41
23953;BME280;12163;49.316;6.092;2023-09-18T02:24:22;98596.84;;;19.89;88.37
23953;BME280;12163;49.316;6.092;2023-09-18T02:26:50;98589.03;;;19.91;88.10
23953;BME280;12163;49.316;6.092;2023-09-18T02:29:16;98591.84;;;19.95;87.49
23953;BME280;12163;49.316;6.092;2023-09-18T02:31:43;98588.00;;;19.99;87.01
23953;BME280;12163;49.316;6.092;2023-09-18T02:34:10;98581.03;;;20.02;86.63
23953;BME280;12163;49.316;6.092;2023-09-18T02:36:36;98586.56;;;20.05;86.24
23953;BME280;12163;49.316;6.092;2023-09-18T02:39:03;98589.72;;;20.07;85.11
23953;BME280;12163;49.316;6.092;2023-09-18T02:41:30;98590.13;;;20.09;85.12
23953;BME280;12163;49.316;6.092;2023-09-18T02:43:57;98593.28;;;20.11;84.99
23953;BME280;12163;49.316;6.092;2023-09-18T02:46:23;98589.38;;;20.12;84.80
23953;BME280;12163;49.316;6.092;2023-09-18T02:48:50;98574.13;;;20.11;84.38
23953;BME280;12163;49.316;6.092;2023-09-18T02:51:17;98574.13;;;20.11;84.34
23953;BME280;12163;49.316;6.092;2023-09-18T02:53:43;98562.81;;;20.13;84.42
23953;BME280;12163;49.316;6.092;2023-09-18T02:56:10;98562.81;;;20.13;84.38
23953;BME280;12163;49.316;6.092;2023-09-18T02:58:37;98549.03;;;20.09;84.67
23953;BME280;12163;49.316;6.092;2023-09-18T03:01:04;98562.69;;;20.06;84.93
23953;BME280;12163;49.316;6.092;2023-09-18T03:03:33;98549.38;;;20.04;84.90
23953;BME280;12163;49.316;6.092;2023-09-18T03:06:03;98545.88;;;20.07;85.09
23953;BME280;12163;49.316;6.092;2023-09-18T03:08:31;98550.97;;;20.09;84.94
23953;BME280;12163;49.316;6.092;2023-09-18T03:10:58;98550.97;;;20.09;84.59
23953;BME280;12163;49.316;6.092;2023-09-18T03:13:27;98545.50;;;20.09;84.94
23953;BME280;12163;49.316;6.092;2023-09-18T03:15:54;98548.63;;;20.07;85.03
23953;BME280;12163;49.316;6.092;2023-09-18T03:18:22;98576.03;;;20.07;84.58
23953;BME280;12163;49.316;6.092;2023-09-18T03:20:50;98564.25;;;20.07;84.76
23953;BME280;12163;49.316;6.092;2023-09-18T03:23:16;98530.63;;;20.06;84.57
23953;BME280;12163;49.316;6.092;2023-09-18T03:25:44;98499.34;;;20.07;84.54
23953;BME280;12163;49.316;6.092;2023-09-18T03:28:17;98508.28;;;20.04;84.99
23953;BME280;12163;49.316;6.092;2023-09-18T03:30:44;98522.34;;;20.03;85.21
23953;BME280;12163;49.316;6.092;2023-09-18T03:33:11;98534.81;;;20.00;85.49
23953;BME280;12163;49.316;6.092;2023-09-18T03:35:51;98514.78;;;19.96;85.70
23953;BME280;12163;49.316;6.092;2023-09-18T03:38:20;98520.66;;;19.95;85.29
23953;BME280;12163;49.316;6.092;2023-09-18T03:40:47;98517.84;;;19.91;85.84
23953;BME280;12163;49.316;6.092;2023-09-18T03:43:14;98508.47;;;19.92;86.07
23953;BME280;12163;49.316;6.092;2023-09-18T03:45:41;98516.34;;;19.94;86.16
23953;BME280;12163;49.316;6.092;2023-09-18T03:48:09;98524.56;;;19.94;86.25
23953;BME280;12163;49.316;6.092;2023-09-18T03:50:36;98506.91;;;19.91;86.46
23953;BME280;12163;49.316;6.092;2023-09-18T03:53:03;98545.22;;;19.88;86.11
23953;BME280;12163;49.316;6.092;2023-09-18T03:55:30;98531.41;;;19.81;87.03
23953;BME280;12163;49.316;6.092;2023-09-18T03:57:57;98540.75;;;19.76;87.17
23953;BME280;12163;49.316;6.092;2023-09-18T04:00:23;98548.16;;;19.76;86.68
23953;BME280;12163;49.316;6.092;2023-09-18T04:02:50;98539.59;;;19.77;86.14
23953;BME280;12163;49.316;6.092;2023-09-18T04:05:17;98495.03;;;19.80;86.38
23953;BME280;12163;49.316;6.092;2023-09-18T04:07:45;98511.50;;;19.84;86.15
23953;BME280;12163;49.316;6.092;2023-09-18T04:10:14;98526.34;;;19.83;86.22
23953;BME280;12163;49.316;6.092;2023-09-18T04:12:50;98521.59;;;19.80;86.25
23953;BME280;12163;49.316;6.092;2023-09-18T04:15:18;98525.50;;;19.79;86.02
23953;BME280;12163;49.316;6.092;2023-09-18T04:17:45;98532.53;;;19.76;86.05
23953;BME280;12163;49.316;6.092;2023-09-18T04:20:12;98550.53;;;19.77;86.28
23953;BME280;12163;49.316;6.092;2023-09-18T04:22:45;98555.13;;;19.73;86.09
23953;BME280;12163;49.316;6.092;2023-09-18T04:25:12;98560.63;;;19.73;86.69
23953;BME280;12163;49.316;6.092;2023-09-18T04:27:39;98550.53;;;19.77;86.44
23953;BME280;12163;49.316;6.092;2023-09-18T04:30:06;98549.38;;;19.78;86.07
23953;BME280;12163;49.316;6.092;2023-09-18T04:32:40;98555.25;;;19.80;85.84
23953;BME280;12163;49.316;6.092;2023-09-18T04:35:07;98565.06;;;19.81;85.53
23953;BME280;12163;49.316;6.092;2023-09-18T04:37:36;98553.31;;;19.81;85.43
23953;BME280;12163;49.316;6.092;2023-09-18T04:40:05;98556.03;;;19.81;85.31
23953;BME280;12163;49.316;6.092;2023-09-18T04:42:37;98558.41;;;19.82;85.23
23953;BME280;12163;49.316;6.092;2023-09-18T04:45:04;98560.00;;;19.83;85.04
23953;BME280;12163;49.316;6.092;2023-09-18T04:47:31;98578.31;;;19.79;85.40
23953;BME280;12163;49.316;6.092;2023-09-18T04:49:58;98580.25;;;19.79;85.07
23953;BME280;12163;49.316;6.092;2023-09-18T04:52:25;98573.78;;;19.90;85.60
23953;BME280;12163;49.316;6.092;2023-09-18T04:54:51;98572.41;;;20.29;85.17
23953;BME280;12163;49.316;6.092;2023-09-18T04:57:18;98576.00;;;20.66;83.63
23953;BME280;12163;49.316;6.092;2023-09-18T04:59:45;98557.50;;;20.89;81.95
23953;BME280;12163;49.316;6.092;2023-09-18T05:02:12;98536.94;;;21.09;80.60
23953;BME280;12163;49.316;6.092;2023-09-18T05:04:39;98528.84;;;21.26;79.67
23953;BME280;12163;49.316;6.092;2023-09-18T05:07:06;98530.91;;;21.40;78.15
23953;BME280;12163;49.316;6.092;2023-09-18T05:09:32;98527.44;;;21.46;78.01
23953;BME280;12163;49.316;6.092;2023-09-18T05:12:04;98526.75;;;21.60;77.33
23953;BME280;12163;49.316;6.092;2023-09-18T05:14:31;98532.31;;;21.67;76.42
23953;BME280;12163;49.316;6.092;2023-09-18T05:16:58;98535.50;;;21.72;75.92
23953;BME280;12163;49.316;6.092;2023-09-18T05:19:24;98523.78;;;21.79;75.13
23953;BME280;12163;49.316;6.092;2023-09-18T05:21:51;98530.00;;;21.72;75.25
23953;BME280;12163;49.316;6.092;2023-09-18T05:24:18;98526.09;;;21.73;74.46
23953;BME280;12163;49.316;6.092;2023-09-18T05:26:53;98515.88;;;21.74;74.51
23953;BME280;12163;49.316;6.092;2023-09-18T05:29:20;98518.22;;;21.72;73.75
23953;BME280;12163;49.316;6.092;2023-09-18T05:31:46;98533.09;;;21.64;74.08
23953;BME280;12163;49.316;6.092;2023-09-18T05:34:13;98541.75;;;21.69;73.90
23953;BME280;12163;49.316;6.092;2023-09-18T05:36:40;98541.81;;;21.76;73.77
23953;BME280;12163;49.316;6.092;2023-09-18T05:39:06;98546.16;;;21.81;73.49
23953;BME280;12163;49.316;6.092;2023-09-18T05:41:39;98541.84;;;21.83;73.40
23953;BME280;12163;49.316;6.092;2023-09-18T05:44:06;98551.28;;;21.86;72.77
23953;BME280;12163;49.316;6.092;2023-09-18T05:46:35;98553.63;;;21.84;72.79
23953;BME280;12163;49.316;6.092;2023-09-18T05:49:02;98559.13;;;21.84;73.00
23953;BME280;12163;49.316;6.092;2023-09-18T05:51:30;98567.78;;;21.93;72.22
23953;BME280;12163;49.316;6.092;2023-09-18T05:53:57;98560.78;;;21.99;72.09
23953;BME280;12163;49.316;6.092;2023-09-18T05:56:24;98565.56;;;22.09;71.49
23953;BME280;12163;49.316;6.092;2023-09-18T05:58:51;98567.41;;;21.87;70.82
23953;BME280;12163;49.316;6.092;2023-09-18T06:01:19;98559.78;;;21.67;72.36
23953;BME280;12163;49.316;6.092;2023-09-18T06:03:46;98566.88;;;21.71;72.07
23953;BME280;12163;49.316;6.092;2023-09-18T06:06:14;98565.19;;;21.60;72.10
23953;BME280;12163;49.316;6.092;2023-09-18T06:08:40;98574.47;;;21.45;72.33
23953;BME280;12163;49.316;6.092;2023-09-18T06:11:07;98576.75;;;21.36;73.02
23953;BME280;12163;49.316;6.092;2023-09-18T06:13:34;98561.09;;;21.40;73.08
23953;BME280;12163;49.316;6.092;2023-09-18T06:16:00;98564.25;;;21.42;73.36
23953;BME280;12163;49.316;6.092;2023-09-18T06:18:33;98565.78;;;21.39;73.07
23953;BME280;12163;49.316;6.092;2023-09-18T06:21:02;98560.28;;;21.36;73.24
23953;BME280;12163;49.316;6.092;2023-09-18T06:23:29;98567.34;;;21.37;73.06
23953;BME280;12163;49.316;6.092;2023-09-18T06:25:56;98577.47;;;21.29;73.92
23953;BME280;12163;49.316;6.092;2023-09-18T06:28:23;98581.09;;;21.40;73.26
23953;BME280;12163;49.316;6.092;2023-09-18T06:30:49;98568.84;;;21.27;72.58
23953;BME280;12163;49.316;6.092;2023-09-18T06:33:16;98562.75;;;21.08;74.03
23953;BME280;12163;49.316;6.092;2023-09-18T06:35:43;98574.91;;;21.07;74.65
23953;BME280;12163;49.316;6.092;2023-09-18T06:38:10;98591.34;;;21.07;73.67
23953;BME280;12163;49.316;6.092;2023-09-18T06:40:39;98603.78;;;20.94;74.37
23953;BME280;12163;49.316;6.092;2023-09-18T06:43:05;98597.47;;;20.90;74.56
23953;BME280;12163;49.316;6.092;2023-09-18T06:45:32;98575.44;;;20.83;75.20
23953;BME280;12163;49.316;6.092;2023-09-18T06:47:59;98571.47;;;20.80;75.55
23953;BME280;12163;49.316;6.092;2023-09-18T06:50:29;98584.06;;;20.85;75.36
23953;BME280;12163;49.316;6.092;2023-09-18T06:52:57;98595.13;;;20.92;75.30
23953;BME280;12163;49.316;6.092;2023-09-18T06:55:23;98599.56;;;21.03;74.72
23953;BME280;12163;49.316;6.092;2023-09-18T06:57:50;98602.31;;;21.03;74.99
23953;BME280;12163;49.316;6.092;2023-09-18T07:00:18;98596.88;;;21.10;74.20
23953;BME280;12163;49.316;6.092;2023-09-18T07:02:47;98599.88;;;20.95;74.24
23953;BME280;12163;49.316;6.092;2023-09-18T07:05:16;98600.53;;;20.85;75.36
23953;BME280;12163;49.316;6.092;2023-09-18T07:07:43;98603.56;;;20.80;75.38
23953;BME280;12163;49.316;6.092;2023-09-18T07:10:10;98609.03;;;20.76;76.01
23953;BME280;12163;49.316;6.092;2023-09-18T07:12:36;98601.59;;;20.77;75.75
23953;BME280;12163;49.316;6.092;2023-09-18T07:15:04;98595.75;;;20.82;75.89
23953;BME280;12163;49.316;6.092;2023-09-18T07:17:32;98598.94;;;20.84;75.87
23953;BME280;12163;49.316;6.092;2023-09-18T07:19:59;98624.03;;;20.86;75.60
23953;BME280;12163;49.316;6.092;2023-09-18T07:22:26;98631.94;;;20.91;75.99
23953;BME280;12163;49.316;6.092;2023-09-18T07:24:56;98617.59;;;21.04;75.75
23953;BME280;12163;49.316;6.092;2023-09-18T07:27:23;98625.00;;;21.00;74.68
23953;BME280;12163;49.316;6.092;2023-09-18T07:29:49;98617.91;;;20.96;75.32
23953;BME280;12163;49.316;6.092;2023-09-18T07:32:17;98618.72;;;21.00;75.49
23953;BME280;12163;49.316;6.092;2023-09-18T07:35:03;98623.38;;;20.96;75.79
23953;BME280;12163;49.316;6.092;2023-09-18T07:37:31;98619.53;;;21.00;75.77
23953;BME280;12163;49.316;6.092;2023-09-18T07:39:58;98618.88;;;21.14;75.71
23953;BME280;12163;49.316;6.092;2023-09-18T07:42:25;98622.03;;;21.16;74.92
23953;BME280;12163;49.316;6.092;2023-09-18T07:44:52;98629.84;;;21.14;74.70
23953;BME280;12163;49.316;6.092;2023-09-18T07:47:20;98609.47;;;21.15;75.03
23953;BME280;12163;49.316;6.092;2023-09-18T07:49:47;98621.97;;;21.09;74.48
23953;BME280;12163;49.316;6.092;2023-09-18T07:52:14;98628.34;;;21.20;75.03
23953;BME280;12163;49.316;6.092;2023-09-18T07:54:42;98619.47;;;21.33;74.44
23953;BME280;12163;49.316;6.092;2023-09-18T07:57:09;98625.72;;;21.30;74.25
23953;BME280;12163;49.316;6.092;2023-09-18T07:59:36;98623.00;;;21.34;74.12
23953;BME280;12163;49.316;6.092;2023-09-18T08:02:03;98620.69;;;21.39;74.42
23953;BME280;12163;49.316;6.092;2023-09-18T08:04:33;98623.94;;;21.52;74.18
23953;BME280;12163;49.316;6.092;2023-09-18T08:07:00;98623.34;;;21.69;74.22
23953;BME280;12163;49.316;6.092;2023-09-18T08:09:26;98643.91;;;21.89;72.88
23953;BME280;12163;49.316;6.092;2023-09-18T08:11:56;98658.56;;;22.07;72.23
23953;BME280;12163;49.316;6.092;2023-09-18T08:14:23;98665.28;;;22.13;70.96
23953;BME280;12163;49.316;6.092;2023-09-18T08:16:58;98670.69;;;21.99;71.58
23953;BME280;12163;49.316;6.092;2023-09-18T08:19:26;98671.78;;;21.91;71.45
23953;BME280;12163;49.316;6.092;2023-09-18T08:21:54;98681.13;;;21.83;72.18
23953;BME280;12163;49.316;6.092;2023-09-18T08:24:22;98668.94;;;21.77;72.50
23953;BME280;12163;49.316;6.092;2023-09-18T08:26:49;98668.34;;;21.61;72.23
23953;BME280;12163;49.316;6.092;2023-09-18T08:29:16;98674.97;;;21.56;73.39
23953;BME280;12163;49.316;6.092;2023-09-18T08:31:44;98671.19;;;21.68;73.13
23953;BME280;12163;49.316;6.092;2023-09-18T08:34:11;98674.84;;;21.82;73.25
23953;BME280;12163;49.316;6.092;2023-09-18T08:36:38;98683.88;;;21.83;72.46
23953;BME280;12163;49.316;6.092;2023-09-18T08:39:04;98681.91;;;21.83;72.36
23953;BME280;12163;49.316;6.092;2023-09-18T08:41:32;98690.41;;;21.64;71.97
23953;BME280;12163;49.316;6.092;2023-09-18T08:44:01;98702.72;;;21.48;73.11
23953;BME280;12163;49.316;6.092;2023-09-18T08:46:30;98703.84;;;21.40;73.44
23953;BME280;12163;49.316;6.092;2023-09-18T08:49:00;98712.44;;;21.38;74.01
23953;BME280;12163;49.316;6.092;2023-09-18T08:51:27;98707.03;;;21.45;74.50
23953;BME280;12163;49.316;6.092;2023-09-18T08:53:54;98709.47;;;21.54;74.24
23953;BME280;12163;49.316;6.092;2023-09-18T08:56:22;98709.28;;;21.73;74.06
23953;BME280;12163;49.316;6.092;2023-09-18T08:58:49;98701.03;;;21.73;71.96
23953;BME280;12163;49.316;6.092;2023-09-18T09:01:17;98703.78;;;21.73;71.93
23953;BME280;12163;49.316;6.092;2023-09-18T09:03:44;98714.78;;;21.73;72.95
23953;BME280;12163;49.316;6.092;2023-09-18T09:06:13;98711.75;;;21.85;72.92
23953;BME280;12163;49.316;6.092;2023-09-18T09:08:40;98709.88;;;21.96;71.79
23953;BME280;12163;49.316;6.092;2023-09-18T09:11:07;98706.84;;;22.08;72.04
23953;BME280;12163;49.316;6.092;2023-09-18T09:13:34;98700.59;;;22.11;71.06
23953;BME280;12163;49.316;6.092;2023-09-18T09:16:12;98701.41;;;22.15;70.28
23953;BME280;12163;49.316;6.092;2023-09-18T09:18:50;98706.81;;;22.01;71.19
23953;BME280;12163;49.316;6.092;2023-09-18T09:21:18;98703.66;;;21.99;71.50
23953;BME280;12163;49.316;6.092;2023-09-18T09:23:51;98696.59;;;21.98;72.13
23953;BME280;12163;49.316;6.092;2023-09-18T09:26:21;98695.16;;;22.18;71.76
23953;BME280;12163;49.316;6.092;2023-09-18T09:28:49;98696.84;;;22.32;71.37
23953;BME280;12163;49.316;6.092;2023-09-18T09:31:28;98695.03;;;22.50;70.95
23953;BME280;12163;49.316;6.092;2023-09-18T09:33:56;98691.19;;;22.69;70.56
23953;BME280;12163;49.316;6.092;2023-09-18T09:36:24;98689.75;;;22.92;70.06
23953;BME280;12163;49.316;6.092;2023-09-18T09:38:58;98681.56;;;23.10;69.29
23953;BME280;12163;49.316;6.092;2023-09-18T09:41:26;98675.75;;;23.22;68.46
23953;BME280;12163;49.316;6.092;2023-09-18T09:43:54;98682.47;;;23.38;68.08
23953;BME280;12163;49.316;6.092;2023-09-18T09:46:24;98678.97;;;23.59;66.98
23953;BME280;12163;49.316;6.092;2023-09-18T09:49:05;98675.44;;;23.58;65.83
23953;BME280;12163;49.316;6.092;2023-09-18T09:51:33;98684.84;;;23.50;66.41
23953;BME280;12163;49.316;6.092;2023-09-18T09:54:00;98694.69;;;23.51;66.19
23953;BME280;12163;49.316;6.092;2023-09-18T09:56:41;98690.34;;;23.50;66.46
23953;BME280;12163;49.316;6.092;2023-09-18T09:59:08;98682.47;;;23.52;65.09
23953;BME280;12163;49.316;6.092;2023-09-18T10:01:35;98684.09;;;23.60;64.60
23953;BME280;12163;49.316;6.092;2023-09-18T10:04:09;98680.16;;;23.68;63.40
23953;BME280;12163;49.316;6.092;2023-09-18T10:06:36;98670.75;;;23.83;63.78
23953;BME280;12163;49.316;6.092;2023-09-18T10:09:04;98671.94;;;23.96;62.64
23953;BME280;12163;49.316;6.092;2023-09-18T10:11:40;98677.84;;;24.12;61.99
23953;BME280;12163;49.316;6.092;2023-09-18T10:14:11;98674.28;;;24.15;62.21
23953;BME280;12163;49.316;6.092;2023-09-18T10:16:40;98675.47;;;24.24;60.73
23953;BME280;12163;49.316;6.092;2023-09-18T10:19:23;98680.97;;;24.28;59.73
23953;BME280;12163;49.316;6.092;2023-09-18T10:22:06;98679.78;;;24.36;60.29
23953;BME280;12163;49.316;6.092;2023-09-18T10:24:40;98681.75;;;24.46;59.71
23953;BME280;12163;49.316;6.092;2023-09-18T10:27:08;98677.78;;;24.64;60.22
23953;BME280;12163;49.316;6.092;2023-09-18T10:29:38;98687.22;;;24.70;58.66
23953;BME280;12163;49.316;6.092;2023-09-18T10:32:07;98686.44;;;24.70;59.30
23953;BME280;12163;49.316;6.092;2023-09-18T10:34:35;98680.09;;;24.80;59.41
23953;BME280;12163;49.316;6.092;2023-09-18T10:37:03;98673.81;;;24.79;58.79
23953;BME280;12163;49.316;6.092;2023-09-18T10:39:38;98665.16;;;24.67;59.50
23953;BME280;12163;49.316;6.092;2023-09-18T10:42:07;98671.50;;;24.60;57.82
23953;BME280;12163;49.316;6.092;2023-09-18T10:44:35;98674.63;;;24.59;57.30
23953;BME280;12163;49.316;6.092;2023-09-18T10:47:03;98674.63;;;24.66;58.41
23953;BME280;12163;49.316;6.092;2023-09-18T10:49:35;98669.88;;;24.63;57.66
23953;BME280;12163;49.316;6.092;2023-09-18T10:52:02;98665.59;;;24.51;57.98
23953;BME280;12163;49.316;6.092;2023-09-18T10:54:31;98666.38;;;24.55;58.55
23953;BME280;12163;49.316;6.092;2023-09-18T10:56:58;98667.88;;;24.81;58.01
23953;BME280;12163;49.316;6.092;2023-09-18T10:59:24;98665.09;;;24.88;57.51
23953;BME280;12163;49.316;6.092;2023-09-18T11:01:51;98676.94;;;24.78;57.05
23953;BME280;12163;49.316;6.092;2023-09-18T11:04:20;98672.25;;;24.64;56.74
23953;BME280;12163;49.316;6.092;2023-09-18T11:09:26;98680.47;;;24.82;55.88
23953;BME280;12163;49.316;6.092;2023-09-18T11:11:54;98669.81;;;24.84;56.31
23953;BME280;12163;49.316;6.092;2023-09-18T11:17:58;98662.81;;;24.55;55.51
23953;BME280;12163;49.316;6.092;2023-09-18T11:20:25;98662.81;;;24.48;56.73
23953;BME280;12163;49.316;6.092;2023-09-18T11:25:40;98661.25;;;24.57;56.43
23953;BME280;12163;49.316;6.092;2023-09-18T11:28:28;98660.41;;;24.67;56.72
23953;BME280;12163;49.316;6.092;2023-09-18T11:31:00;98657.19;;;24.90;56.76
23953;BME280;12163;49.316;6.092;2023-09-18T11:33:38;98644.44;;;25.17;55.50
23953;BME280;12163;49.316;6.092;2023-09-18T11:36:11;98641.97;;;25.40;55.62
23953;BME280;12163;49.316;6.092;2023-09-18T11:38:52;98633.13;;;25.62;54.08
23953;BME280;12163;49.316;6.092;2023-09-18T11:41:26;98642.56;;;25.68;54.21
23953;BME280;12163;49.316;6.092;2023-09-18T11:46:45;98643.22;;;25.90;53.07
23953;BME280;12163;49.316;6.092;2023-09-18T11:49:13;98636.84;;;25.92;52.93
23953;BME280;12163;49.316;6.092;2023-09-18T11:51:40;98628.81;;;26.08;53.36
23953;BME280;12163;49.316;6.092;2023-09-18T11:54:07;98622.03;;;26.16;52.58
23953;BME280;12163;49.316;6.092;2023-09-18T11:56:35;98628.06;;;26.04;51.91
23953;BME280;12163;49.316;6.092;2023-09-18T11:59:02;98629.84;;;25.85;51.49
23953;BME280;12163;49.316;6.092;2023-09-18T12:01:31;98630.72;;;25.68;52.35
23953;BME280;12163;49.316;6.092;2023-09-18T12:04:03;98645.03;;;25.56;52.78
23953;BME280;12163;49.316;6.092;2023-09-18T12:06:39;98634.88;;;25.42;53.40
23953;BME280;12163;49.316;6.092;2023-09-18T12:09:07;98638.41;;;25.43;53.10
23953;BME280;12163;49.316;6.092;2023-09-18T12:11:35;98632.44;;;25.51;53.56
23953;BME280;12163;49.316;6.092;2023-09-18T12:14:02;98626.88;;;25.55;53.25
23953;BME280;12163;49.316;6.092;2023-09-18T12:16:36;98630.78;;;25.61;52.50
23953;BME280;12163;49.316;6.092;2023-09-18T12:19:04;98613.28;;;25.78;52.78
23953;BME280;12163;49.316;6.092;2023-09-18T12:21:33;98628.16;;;25.94;52.20
23953;BME280;12163;49.316;6.092;2023-09-18T12:24:06;98620.22;;;25.99;52.16
23953;BME280;12163;49.316;6.092;2023-09-18T12:26:33;98624.19;;;25.98;51.36
23953;BME280;12163;49.316;6.092;2023-09-18T12:29:00;98620.81;;;26.17;51.22
23953;BME280;12163;49.316;6.092;2023-09-18T12:31:26;98622.34;;;26.25;51.20
23953;BME280;12163;49.316;6.092;2023-09-18T12:33:53;98625.56;;;26.20;50.09
23953;BME280;12163;49.316;6.092;2023-09-18T12:36:20;98631.97;;;26.10;50.28
23953;BME280;12163;49.316;6.092;2023-09-18T12:38:59;98625.03;;;25.92;50.68
23953;BME280;12163;49.316;6.092;2023-09-18T12:41:27;98624.34;;;25.78;51.00
23953;BME280;12163;49.316;6.092;2023-09-18T12:43:57;98631.13;;;25.66;51.73
23953;BME280;12163;49.316;6.092;2023-09-18T12:46:24;98624.50;;;25.57;51.96
23953;BME280;12163;49.316;6.092;2023-09-18T12:48:50;98635.56;;;25.53;51.80
23953;BME280;12163;49.316;6.092;2023-09-18T12:51:18;98618.53;;;25.62;51.58
23953;BME280;12163;49.316;6.092;2023-09-18T12:53:59;98616.59;;;25.59;51.95
23953;BME280;12163;49.316;6.092;2023-09-18T12:56:26;98619.78;;;25.54;51.81
23953;BME280;12163;49.316;6.092;2023-09-18T12:58:57;98614.59;;;25.59;51.38
23953;BME280;12163;49.316;6.092;2023-09-18T13:01:27;98603.16;;;25.61;51.17
23953;BME280;12163;49.316;6.092;2023-09-18T13:03:54;98613.31;;;25.71;51.21
23953;BME280;12163;49.316;6.092;2023-09-18T13:06:22;98612.50;;;25.74;50.24
23953;BME280;12163;49.316;6.092;2023-09-18T13:08:49;98591.97;;;25.75;50.60
23953;BME280;12163;49.316;6.092;2023-09-18T13:11:16;98591.44;;;25.93;50.47
23953;BME280;12163;49.316;6.092;2023-09-18T13:13:43;98595.13;;;26.20;49.09
23953;BME280;12163;49.316;6.092;2023-09-18T13:16:13;98580.69;;;26.39;49.71
23953;BME280;12163;49.316;6.092;2023-09-18T13:18:41;98589.25;;;26.52;48.95